Time;durP1;ratioP1;P1;durP2;ratioP2;P2;SDS_P1;SDS_P2;PMS_P1;PMS_P2;Temp;Humidity;BMP_temperature;BMP_pressure;BME280_temperature;BME280_humidity;BME280_pressure;Samples;Min_cycle;Max_cycle;Signal;HPM_P1;HPM_P2
2022/11/04 00:02:16;;;;;;;7.90;6.43;;;;;;;5.91;100.00;95132.00;5056844;28;20454;-79
2022/11/04 00:04:43;;;;;;;8.00;7.20;;;;;;;6.27;100.00;95148.88;5012041;28;20485;-79
2022/11/04 00:08:22;;;;;;;9.20;6.50;;;;;;;6.33;100.00;95149.44;5017243;28;20467;-79
2022/11/04 00:09:56;;;;;;;9.80;7.03;;;;;;;6.19;100.00;95128.75;5035334;28;20449;-79
2022/11/04 00:12:23;;;;;;;8.60;7.73;;;;;;;6.37;100.00;95158.94;5019799;28;20454;-79
2022/11/04 00:14:50;;;;;;;7.47;6.50;;;;;;;6.18;100.00;95161.34;5022307;28;20513;-79
2022/11/04 00:17:22;;;;;;;10.00;6.20;;;;;;;6.65;100.00;95213.44;5022527;28;20492;-79
2022/11/04 00:33:57;;;;;;;15.23;11.00;;;;;;;6.64;100.00;95246.03;5034611;28;20461;-80
2022/11/04 00:36:25;;;;;;;10.53;7.37;;;;;;;6.41;100.00;95219.41;5040017;28;20426;-81
2022/11/04 00:38:52;;;;;;;10.03;7.30;;;;;;;6.55;100.00;95246.16;5029558;28;20439;-81
2022/11/04 00:41:25;;;;;;;10.93;7.43;;;;;;;6.34;100.00;95214.72;5046863;28;20499;-81
2022/11/04 00:43:57;;;;;;;8.53;7.40;;;;;;;6.58;100.00;95256.00;5025191;28;20462;-81
2022/11/04 00:46:25;;;;;;;10.90;6.77;;;;;;;6.34;100.00;95219.97;5021498;28;20462;-81
2022/11/04 00:48:52;;;;;;;8.83;8.00;;;;;;;6.25;100.00;95210.66;5042962;28;20430;-81
2022/11/04 00:51:20;;;;;;;8.27;5.73;;;;;;;6.33;100.00;95239.44;5029119;28;20486;-81
2022/11/04 00:53:47;;;;;;;9.03;6.87;;;;;;;6.18;100.00;95204.09;5023393;28;20524;-80
2022/11/04 00:56:14;;;;;;;7.37;6.60;;;;;;;6.40;100.00;95241.50;5029296;28;20480;-80
2022/11/04 00:58:41;;;;;;;8.03;7.23;;;;;;;6.20;100.00;95219.50;5043288;28;20788;-80
2022/11/04 01:01:16;;;;;;;9.43;7.40;;;;;;;6.15;100.00;95222.34;5046562;28;20432;-80
2022/11/04 01:03:45;;;;;;;11.97;6.80;;;;;;;6.26;100.00;95238.44;5039446;28;20426;-80
2022/11/04 01:06:11;;;;;;;7.63;6.83;;;;;;;5.99;100.00;95190.69;5060287;28;20497;-80
2022/11/04 01:08:39;;;;;;;9.47;8.07;;;;;;;5.86;100.00;95168.13;5043566;28;20448;-80
2022/11/04 01:11:08;;;;;;;9.80;8.33;;;;;;;6.05;100.00;95192.03;5027074;28;20538;-80
2022/11/04 01:13:35;;;;;;;8.43;7.27;;;;;;;6.12;100.00;95191.50;5012636;28;20546;-80
2022/11/04 01:16:10;;;;;;;12.00;8.70;;;;;;;6.35;100.00;95228.63;5026472;28;20429;-80
2022/11/04 01:18:40;;;;;;;14.70;7.33;;;;;;;6.04;100.00;95181.88;5054912;28;20503;-80
2022/11/04 01:21:09;;;;;;;10.40;7.23;;;;;;;6.44;100.00;95234.53;5012044;28;20436;-79
2022/11/04 01:23:36;;;;;;;9.90;7.87;;;;;;;6.58;100.00;95236.84;5016944;28;20460;-80
2022/11/04 01:26:08;;;;;;;13.93;9.43;;;;;;;6.14;100.00;95181.44;5036482;28;20459;-80
2022/11/04 01:28:35;;;;;;;13.20;9.63;;;;;;;6.27;100.00;95201.34;5040129;28;20453;-80
2022/11/04 01:31:09;;;;;;;13.80;8.80;;;;;;;6.33;100.00;95212.44;5047435;28;20493;-80
2022/11/04 01:33:37;;;;;;;18.60;9.17;;;;;;;6.44;100.00;95226.66;5043640;28;20464;-80
2022/11/04 01:36:06;;;;;;;15.83;8.23;;;;;;;6.50;100.00;95228.75;5046444;28;21049;-80
2022/11/04 01:38:33;;;;;;;11.13;8.20;;;;;;;6.59;100.00;95217.38;5044227;28;20713;-80
2022/11/04 01:41:00;;;;;;;16.47;10.03;;;;;;;6.23;100.00;95193.38;5012601;28;20442;-80
2022/11/04 01:43:48;;;;;;;9.40;7.97;;;;;;;6.37;100.00;95208.03;5025944;28;20925;-80
2022/11/04 01:46:49;;;;;;;11.30;9.53;;;;;;;6.40;100.00;95223.91;5044354;28;20419;-80
2022/11/04 01:49:22;;;;;;;19.47;10.20;;;;;;;6.43;100.00;95217.25;5043210;28;20442;-80
2022/11/04 01:51:52;;;;;;;15.33;10.43;;;;;;;6.27;100.00;95190.84;5015648;28;20461;-79
2022/11/04 01:54:19;;;;;;;13.83;9.53;;;;;;;6.08;100.00;95167.00;5042296;28;20537;-79
2022/11/04 01:56:47;;;;;;;13.33;8.40;;;;;;;6.13;100.00;95174.66;5046794;28;20426;-80
2022/11/04 01:59:24;;;;;;;13.10;8.70;;;;;;;6.05;100.00;95165.03;5052057;28;21037;-80
2022/11/04 02:01:51;;;;;;;9.67;8.50;;;;;;;6.08;100.00;95164.38;5046396;28;21020;-80
2022/11/04 02:04:25;;;;;;;11.40;9.47;;;;;;;6.14;100.00;95181.44;5049285;28;20442;-81
2022/11/04 02:06:58;;;;;;;17.43;8.73;;;;;;;6.35;100.00;95205.75;5047851;28;20477;-81
2022/11/04 02:09:31;;;;;;;16.70;10.80;;;;;;;6.00;100.00;95154.72;5042338;28;20977;-79
2022/11/04 02:14:46;;;;;;;26.23;13.37;;;;;;;6.44;100.00;95219.56;5042826;28;20465;-79
2022/11/04 02:17:16;;;;;;;16.47;10.53;;;;;;;6.49;100.00;95216.72;5042759;28;20414;-79
2022/11/04 02:19:52;;;;;;;13.70;10.80;;;;;;;6.46;100.00;95221.84;5044444;28;20525;-79
2022/11/04 02:22:46;;;;;;;14.00;9.30;;;;;;;6.51;100.00;95232.91;5048044;28;20581;-79
2022/11/04 02:25:38;;;;;;;16.27;10.87;;;;;;;6.49;100.00;95227.22;5031708;28;20513;-80
2022/11/04 02:28:47;;;;;;;12.30;8.37;;;;;;;6.40;100.00;95202.91;5048402;28;20504;-79
2022/11/04 02:31:51;;;;;;;13.80;8.60;;;;;;;6.66;100.00;95262.22;5028814;28;20473;-79
2022/11/04 02:34:28;;;;;;;11.73;8.70;;;;;;;6.56;100.00;95257.44;5025166;28;20466;-79
2022/11/04 02:37:08;;;;;;;10.23;8.70;;;;;;;6.51;100.00;95267.03;5027338;28;20921;-79
2022/11/04 02:39:52;;;;;;;16.63;7.73;;;;;;;6.08;100.00;95204.50;5026222;28;20439;-80
2022/11/04 02:42:31;;;;;;;13.67;9.63;;;;;;;6.44;100.00;95258.94;5035347;28;20520;-80
2022/11/04 02:45:06;;;;;;;13.73;8.43;;;;;;;5.98;100.00;95193.66;5034314;28;20446;-80
2022/11/04 02:47:40;;;;;;;14.03;8.83;;;;;;;6.28;100.00;95238.88;5016909;28;20977;-80
2022/11/04 02:50:14;;;;;;;9.37;8.00;;;;;;;6.30;100.00;95241.94;5007520;28;20434;-80
2022/11/04 02:52:56;;;;;;;8.30;7.40;;;;;;;6.37;100.00;95244.78;5059567;28;20469;-79
2022/11/04 02:55:33;;;;;;;12.67;9.47;;;;;;;5.94;100.00;95190.91;5055574;28;20473;-79
2022/11/04 02:58:03;;;;;;;11.63;8.80;;;;;;;5.86;100.00;95187.25;5043575;28;20783;-78
2022/11/04 03:00:32;;;;;;;10.70;8.90;;;;;;;6.30;100.00;95249.81;5063355;28;20426;-79
2022/11/04 03:03:05;;;;;;;13.33;9.97;;;;;;;6.42;100.00;95269.00;5035547;28;20485;-79
2022/11/04 03:05:36;;;;;;;12.00;9.03;;;;;;;6.46;100.00;95272.50;5039295;28;20543;-79
2022/11/04 03:08:26;;;;;;;9.70;8.40;;;;;;;6.34;100.00;95250.69;5028551;28;20517;-79
2022/11/04 03:11:04;;;;;;;9.73;8.17;;;;;;;6.36;100.00;95251.91;5037131;28;20488;-80
2022/11/04 03:13:38;;;;;;;12.67;9.17;;;;;;;6.34;100.00;95248.06;5047063;28;20532;-79
2022/11/04 03:16:14;;;;;;;10.37;9.10;;;;;;;6.09;100.00;95207.88;5028448;28;20517;-80
2022/11/04 03:19:00;;;;;;;9.67;8.63;;;;;;;6.35;100.00;95245.13;5050680;28;20445;-80
2022/11/04 03:21:31;;;;;;;14.57;9.60;;;;;;;5.97;100.00;95190.25;5025162;28;20490;-80
2022/11/04 03:23:59;;;;;;;13.50;8.97;;;;;;;6.34;100.00;95219.97;5012044;28;20435;-80
2022/11/04 03:26:32;;;;;;;9.80;8.80;;;;;;;6.15;100.00;95196.88;5013790;28;20439;-81
2022/11/04 03:29:17;;;;;;;10.43;9.10;;;;;;;6.40;100.00;95231.00;5046565;28;20430;-81
2022/11/04 03:31:46;;;;;;;10.67;8.90;;;;;;;6.45;100.00;95226.34;5046752;28;20911;-81
2022/11/04 03:34:13;;;;;;;10.70;9.00;;;;;;;6.49;100.00;95219.34;5042775;28;20457;-81
2022/11/04 03:36:40;;;;;;;9.53;7.33;;;;;;;6.52;100.00;95153.03;5040417;28;20421;-80
2022/11/04 03:39:07;;;;;;;8.97;7.57;;;;;;;6.95;100.00;95220.00;5024598;28;20443;-80
2022/11/04 03:41:41;;;;;;;10.20;8.20;;;;;;;6.94;100.00;95225.56;5046724;28;20454;-80
2022/11/04 03:44:08;;;;;;;6.90;6.30;;;;;;;6.69;100.00;95177.56;5044151;28;20459;-80
2022/11/04 03:46:35;;;;;;;9.03;6.83;;;;;;;7.38;100.00;95271.22;5023903;28;20802;-81
2022/11/04 03:49:02;;;;;;;8.23;6.20;;;;;;;7.18;100.00;95251.06;5042734;28;20811;-81
2022/11/04 03:51:28;;;;;;;12.23;6.10;;;;;;;7.16;100.00;95243.50;5046939;28;20494;-80
2022/11/04 03:53:56;;;;;;;7.40;6.00;;;;;;;7.01;100.00;95204.78;5027418;28;20473;-81
2022/11/04 03:56:45;;;;;;;5.13;4.47;;;;;;;7.47;100.00;95268.44;5041293;28;20425;-82
2022/11/04 03:59:43;;;;;;;5.07;4.60;;;;;;;7.62;100.00;95300.09;5020815;28;20535;-81
2022/11/04 04:02:18;;;;;;;7.50;4.53;;;;;;;7.62;100.00;95297.47;5042222;28;20451;-81
2022/11/04 04:05:00;;;;;;;5.40;4.00;;;;;;;7.51;100.00;95290.38;5046869;28;20678;-82
2022/11/04 04:07:41;;;;;;;4.60;3.43;;;;;;;7.52;100.00;95278.75;5030614;28;20529;-82
2022/11/04 04:13:07;;;;;;;4.30;3.70;;;;;;;7.52;100.00;95273.50;5032216;28;20449;-82
2022/11/04 04:15:44;;;;;;;4.63;3.37;;;;;;;7.70;100.00;95304.47;5017974;28;20549;-82
2022/11/04 04:18:15;;;;;;;4.33;3.10;;;;;;;7.43;100.00;95280.72;5036284;28;20440;-81
2022/11/04 04:20:46;;;;;;;4.50;3.80;;;;;;;7.44;100.00;95298.81;5041071;28;20531;-81
2022/11/04 04:28:58;;;;;;;4.63;3.87;;;;;;;7.11;100.00;95256.91;5041964;28;20492;-82
2022/11/04 04:34:12;;;;;;;4.97;4.43;;;;;;;6.88;100.00;95240.81;5026167;28;20538;-82
2022/11/04 04:36:53;;;;;;;5.23;4.73;;;;;;;6.98;100.00;95237.75;5048214;28;20446;-82
2022/11/04 04:45:02;;;;;;;4.43;3.10;;;;;;;7.41;100.00;95263.41;5038763;28;20448;-81
2022/11/04 04:47:41;;;;;;;5.43;3.20;;;;;;;7.54;100.00;95287.84;5046746;28;20445;-82
2022/11/04 04:50:11;;;;;;;4.20;3.30;;;;;;;7.66;100.00;95303.59;5030523;28;20420;-81
2022/11/04 04:52:43;;;;;;;3.37;3.07;;;;;;;7.13;100.00;95230.28;5029783;28;20530;-81
2022/11/04 04:55:11;;;;;;;5.07;3.30;;;;;;;7.48;100.00;95283.91;5063454;28;20460;-79
2022/11/04 04:57:38;;;;;;;3.50;3.20;;;;;;;7.41;100.00;95273.19;5064427;28;20406;-79
2022/11/04 05:00:07;;;;;;;2.87;2.60;;;;;;;7.68;100.00;95296.13;5069115;28;20440;-79
2022/11/04 05:02:34;;;;;;;4.13;2.77;;;;;;;7.61;100.00;95295.16;5070882;28;20449;-79
2022/11/04 05:05:01;;;;;;;2.50;2.30;;;;;;;7.38;100.00;95276.47;5065905;28;20421;-80
2022/11/04 05:07:28;;;;;;;3.57;3.27;;;;;;;7.41;100.00;95281.06;5038157;28;20426;-81
2022/11/04 05:09:55;;;;;;;6.90;3.73;;;;;;;7.02;100.00;95227.34;5019139;28;20449;-81
2022/11/04 05:12:22;;;;;;;4.47;3.80;;;;;;;7.26;100.00;95279.13;5026978;28;20535;-80
2022/11/04 05:14:48;;;;;;;4.10;3.50;;;;;;;7.03;100.00;95244.63;5020192;28;20494;-80
2022/11/04 05:17:15;;;;;;;3.73;2.93;;;;;;;6.83;100.00;95214.75;5036566;28;20433;-80
2022/11/04 05:19:42;;;;;;;4.10;3.40;;;;;;;6.92;100.00;95227.75;5046313;28;20942;-80
2022/11/04 05:22:08;;;;;;;4.40;4.00;;;;;;;6.67;100.00;95184.97;5033431;28;20462;-80
2022/11/04 05:24:35;;;;;;;3.70;3.30;;;;;;;6.81;100.00;95212.47;5010474;28;21005;-80
2022/11/04 05:27:02;;;;;;;4.17;3.43;;;;;;;6.81;100.00;95216.94;5033335;28;20441;-80
2022/11/04 05:29:28;;;;;;;4.03;3.73;;;;;;;6.75;100.00;95213.75;5046855;28;20425;-81
2022/11/04 05:31:55;;;;;;;4.13;3.73;;;;;;;6.69;100.00;95204.59;5026068;28;20827;-81
2022/11/04 05:34:22;;;;;;;5.20;4.70;;;;;;;6.65;100.00;95195.03;5025785;28;20553;-81
2022/11/04 05:36:49;;;;;;;5.87;5.37;;;;;;;6.85;100.00;95222.31;5048008;28;20434;-81
2022/11/04 05:39:16;;;;;;;6.40;4.97;;;;;;;6.97;100.00;95241.47;5036563;28;20521;-81
2022/11/04 05:41:42;;;;;;;5.00;4.47;;;;;;;6.92;100.00;95220.66;5022839;28;20466;-81
2022/11/04 05:44:09;;;;;;;5.43;4.40;;;;;;;6.92;100.00;95225.13;5047161;28;20437;-81
2022/11/04 05:46:36;;;;;;;3.70;3.20;;;;;;;6.65;100.00;95182.69;5022638;28;20453;-81
2022/11/04 05:49:03;;;;;;;5.70;3.83;;;;;;;6.57;100.00;95167.81;5047419;28;20540;-81
2022/11/04 05:51:31;;;;;;;7.10;4.20;;;;;;;6.08;100.00;95099.56;5042993;28;20552;-81
2022/11/04 05:53:58;;;;;;;4.63;4.23;;;;;;;6.88;100.00;95208.50;5045912;28;20438;-81
2022/11/04 05:56:24;;;;;;;3.80;3.47;;;;;;;6.69;100.00;95146.81;5050102;28;20430;-81
2022/11/04 05:58:51;;;;;;;5.70;4.37;;;;;;;6.84;100.00;95166.38;5049009;28;20497;-81
2022/11/04 06:01:36;;;;;;;5.27;4.17;;;;;;;6.97;100.00;95193.41;5043135;28;20433;-81
2022/11/04 06:04:04;;;;;;;8.10;6.13;;;;;;;7.32;100.00;95247.00;5042239;28;20439;-81
2022/11/04 06:06:34;;;;;;;6.07;5.33;;;;;;;7.27;100.00;95252.50;5043465;28;20455;-81
2022/11/04 06:09:02;;;;;;;6.10;5.50;;;;;;;7.32;100.00;95256.75;5013450;28;20500;-81
2022/11/04 06:11:29;;;;;;;5.70;5.17;;;;;;;7.25;100.00;95252.06;5037733;28;20526;-81
2022/11/04 06:13:57;;;;;;;7.03;4.90;;;;;;;7.00;100.00;95213.75;5029480;28;20511;-81
2022/11/04 06:16:24;;;;;;;4.40;3.80;;;;;;;7.20;100.00;95249.63;5045646;28;20450;-81
2022/11/04 06:18:51;;;;;;;5.37;3.87;;;;;;;6.88;100.00;95224.28;5023630;28;21002;-81
2022/11/04 06:21:24;;;;;;;4.30;3.90;;;;;;;7.04;100.00;95262.69;5027458;28;20529;-81
2022/11/04 06:23:52;;;;;;;5.87;4.50;;;;;;;6.93;100.00;95251.09;5033207;28;20450;-81
2022/11/04 06:26:19;;;;;;;4.67;4.23;;;;;;;6.88;100.00;95248.69;5048527;28;20947;-81
2022/11/04 06:28:52;;;;;;;6.60;4.40;;;;;;;7.00;100.00;95258.44;5026665;28;20447;-81
2022/11/04 06:31:20;;;;;;;3.77;3.47;;;;;;;7.16;100.00;95282.19;5031783;28;20463;-82
2022/11/04 06:33:46;;;;;;;4.40;3.97;;;;;;;7.13;100.00;95285.47;5024552;28;20536;-82
2022/11/04 06:36:14;;;;;;;4.20;3.90;;;;;;;7.29;100.00;95297.63;5023856;28;20467;-82
2022/11/04 06:38:41;;;;;;;6.17;5.57;;;;;;;7.41;100.00;95302.88;5016872;28;20450;-81
2022/11/04 06:41:12;;;;;;;6.97;5.57;;;;;;;7.00;100.00;95255.81;5042858;28;20429;-81
2022/11/04 06:43:39;;;;;;;7.20;4.90;;;;;;;7.34;100.00;95307.13;5023035;28;20864;-81
2022/11/04 06:46:30;;;;;;;5.70;5.10;;;;;;;7.18;100.00;95283.38;5049480;28;20966;-81
2022/11/04 06:48:57;;;;;;;3.37;3.07;;;;;;;7.19;100.00;95263.13;5046626;28;20420;-81
2022/11/04 06:51:24;;;;;;;4.23;3.60;;;;;;;7.43;100.00;95301.75;5026799;28;20541;-81
2022/11/04 06:53:51;;;;;;;3.20;3.00;;;;;;;7.03;100.00;95250.66;5024807;28;20454;-81
2022/11/04 06:56:18;;;;;;;4.10;3.70;;;;;;;7.52;100.00;95329.47;5068529;28;20501;-81
2022/11/04 06:58:52;;;;;;;3.10;2.67;;;;;;;7.76;100.00;95367.38;5068396;28;20409;-80
2022/11/04 07:01:20;;;;;;;3.23;3.03;;;;;;;7.68;100.00;95369.78;5039875;28;20464;-80
2022/11/04 07:03:55;;;;;;;3.50;3.20;;;;;;;7.69;100.00;95378.44;5062970;28;20442;-81
2022/11/04 07:06:21;;;;;;;3.50;3.20;;;;;;;7.36;100.00;95333.88;5021485;28;20431;-81
2022/11/04 07:08:50;;;;;;;3.90;3.50;;;;;;;6.74;100.00;95241.13;5044050;28;20492;-81
2022/11/04 07:11:19;;;;;;;3.17;2.93;;;;;;;7.65;100.00;95380.22;5022901;28;20438;-79
2022/11/04 07:13:47;;;;;;;3.07;2.77;;;;;;;7.16;100.00;95309.22;5031591;28;20437;-79
2022/11/04 07:16:15;;;;;;;2.77;2.57;;;;;;;7.37;100.00;95344.06;5043406;28;20528;-79
2022/11/04 07:18:42;;;;;;;2.47;2.27;;;;;;;7.35;100.00;95325.22;5040561;28;20533;-79
2022/11/04 07:21:09;;;;;;;3.10;2.80;;;;;;;7.33;100.00;95314.25;5045123;28;20454;-79
2022/11/04 07:23:36;;;;;;;2.43;2.13;;;;;;;7.63;100.00;95356.88;5031091;28;20469;-79
2022/11/04 07:26:06;;;;;;;4.80;3.90;;;;;;;7.41;100.00;95337.03;5043495;28;20457;-80
2022/11/04 07:28:34;;;;;;;3.37;2.70;;;;;;;7.64;100.00;95363.66;5040634;28;20544;-79
2022/11/04 07:31:02;;;;;;;3.50;3.10;;;;;;;7.59;100.00;95361.25;5044186;28;20453;-79
2022/11/04 07:33:31;;;;;;;3.87;3.60;;;;;;;7.57;100.00;95333.75;5031516;28;20461;-79
2022/11/04 07:36:01;;;;;;;3.07;2.70;;;;;;;7.49;100.00;95324.88;5028670;28;20836;-81
2022/11/04 07:38:28;;;;;;;8.70;2.87;;;;;;;7.51;100.00;95309.53;5024660;28;20438;-80
2022/11/04 07:40:57;;;;;;;3.23;2.27;;;;;;;7.69;100.00;95323.19;5044818;28;20465;-80
2022/11/04 07:43:23;;;;;;;2.80;2.60;;;;;;;6.78;100.00;95202.59;5048982;28;20458;-80
2022/11/04 07:46:02;;;;;;;2.00;1.80;;;;;;;7.70;100.00;95333.38;5026909;28;20419;-80
2022/11/04 07:48:29;;;;;;;2.00;1.90;;;;;;;7.43;100.00;95292.00;5027539;28;20827;-80
2022/11/04 07:50:58;;;;;;;2.60;2.40;;;;;;;7.41;100.00;95273.19;5033396;28;20528;-80
2022/11/04 07:53:29;;;;;;;4.43;2.50;;;;;;;7.62;100.00;95297.47;5042939;28;20796;-81
2022/11/04 07:55:56;;;;;;;2.60;2.40;;;;;;;7.10;100.00;95245.63;5042051;28;20703;-80
2022/11/04 07:58:24;;;;;;;5.10;1.93;;;;;;;7.36;100.00;95302.34;5046715;28;20430;-80
2022/11/04 08:00:57;;;;;;;3.40;2.43;;;;;;;7.29;100.00;95286.34;5031805;28;20484;-80
2022/11/04 08:03:23;;;;;;;3.33;2.00;;;;;;;6.68;100.00;95213.56;5046238;28;20465;-80
2022/11/04 08:05:58;;;;;;;2.27;2.07;;;;;;;7.33;100.00;95301.09;5025959;28;20445;-80
2022/11/04 08:08:26;;;;;;;2.03;1.83;;;;;;;6.63;100.00;95202.50;5027739;28;20484;-80
2022/11/04 08:10:59;;;;;;;4.50;2.00;;;;;;;6.96;100.00;95232.06;5036441;28;20521;-81
2022/11/04 08:13:28;;;;;;;2.03;1.83;;;;;;;7.08;100.00;95254.94;5046640;28;20452;-82
2022/11/04 08:15:55;;;;;;;2.43;2.23;;;;;;;7.23;100.00;95269.25;5030077;28;20498;-82
2022/11/04 08:18:22;;;;;;;3.43;2.13;;;;;;;7.35;100.00;95270.00;5026744;28;20462;-82
2022/11/04 08:20:50;;;;;;;5.43;2.40;;;;;;;7.77;100.00;95303.13;5053388;28;20445;-82
2022/11/04 08:23:18;;;;;;;9.20;3.20;;;;;;;7.85;100.00;95318.00;5025225;28;20468;-82
2022/11/04 08:25:45;;;;;;;2.43;2.23;;;;;;;7.59;100.00;95292.09;5024663;28;20434;-81
2022/11/04 08:28:16;;;;;;;2.10;2.00;;;;;;;7.44;100.00;95283.03;5043556;28;20457;-82
2022/11/04 08:30:58;;;;;;;2.93;2.40;;;;;;;7.72;100.00;95333.06;5029408;28;20500;-82
2022/11/04 08:33:26;;;;;;;2.53;2.40;;;;;;;7.41;100.00;95286.31;5028655;28;20823;-82
2022/11/04 08:35:55;;;;;;;5.80;2.90;;;;;;;6.95;100.00;95225.25;5032259;28;20525;-82
2022/11/04 08:38:22;;;;;;;3.00;2.80;;;;;;;7.26;100.00;95282.50;5031749;28;20446;-82
2022/11/04 08:40:48;;;;;;;3.67;2.70;;;;;;;7.48;100.00;95333.09;5012742;28;20442;-82
2022/11/04 08:43:15;;;;;;;4.50;3.17;;;;;;;7.33;100.00;95321.38;5051627;28;20469;-82
2022/11/04 08:45:44;;;;;;;4.57;2.57;;;;;;;7.45;100.00;95341.63;5038676;28;20549;-82
2022/11/04 08:48:13;;;;;;;2.47;2.23;;;;;;;7.69;100.00;95366.06;5052305;28;20442;-82
2022/11/04 08:50:39;;;;;;;3.40;2.73;;;;;;;7.59;100.00;95348.09;5050180;28;20487;-82
2022/11/04 08:53:06;;;;;;;4.20;3.37;;;;;;;7.51;100.00;95332.44;5054858;28;20533;-82
2022/11/04 08:55:34;;;;;;;5.67;3.30;;;;;;;7.70;100.00;95379.97;5052315;28;20910;-82
2022/11/04 08:58:01;;;;;;;5.60;3.90;;;;;;;7.59;100.00;95363.09;5053939;28;20500;-82
2022/11/04 09:00:28;;;;;;;3.40;3.10;;;;;;;7.61;100.00;95384.56;5065802;28;20430;-81
2022/11/04 09:02:55;;;;;;;3.93;3.10;;;;;;;7.42;100.00;95356.22;5067125;28;20514;-81
2022/11/04 09:05:22;;;;;;;2.07;1.97;;;;;;;7.48;100.00;95388.31;5039389;28;20470;-82
2022/11/04 09:07:48;;;;;;;3.93;1.83;;;;;;;7.46;100.00;95382.63;5048265;28;20484;-82
2022/11/04 09:10:16;;;;;;;3.50;1.70;;;;;;;7.47;100.00;95379.66;5066656;28;20430;-81
2022/11/04 09:12:43;;;;;;;3.90;2.57;;;;;;;6.93;100.00;95298.38;5039644;28;20481;-81
2022/11/04 09:15:10;;;;;;;2.73;2.53;;;;;;;7.03;100.00;95323.47;5020671;28;20466;-82
2022/11/04 09:17:37;;;;;;;2.87;2.37;;;;;;;7.28;100.00;95371.56;5031049;28;20443;-82
2022/11/04 09:20:05;;;;;;;3.50;2.40;;;;;;;7.06;100.00;95334.06;5033570;28;21112;-82
2022/11/04 09:22:32;;;;;;;3.00;2.67;;;;;;;7.29;100.00;95365.19;5032339;28;20454;-82
2022/11/04 09:24:58;;;;;;;4.30;3.70;;;;;;;7.28;100.00;95353.16;5043323;28;20470;-82
2022/11/04 09:27:25;;;;;;;4.10;3.70;;;;;;;7.14;100.00;95334.31;5030086;28;20612;-81
2022/11/04 09:29:52;;;;;;;5.90;4.47;;;;;;;7.44;100.00;95361.91;5043832;28;20454;-81
2022/11/04 09:32:18;;;;;;;6.40;4.63;;;;;;;7.28;100.00;95345.25;5029191;28;20973;-81
2022/11/04 09:34:45;;;;;;;5.47;4.20;;;;;;;7.20;100.00;95333.75;5042210;28;20542;-81
2022/11/04 09:37:12;;;;;;;10.03;3.90;;;;;;;7.17;100.00;95342.31;5028852;28;20818;-81
2022/11/04 09:39:39;;;;;;;4.97;4.33;;;;;;;7.08;100.00;95323.25;5028621;28;20446;-81
2022/11/04 09:42:43;;;;;;;4.83;3.20;;;;;;;7.39;100.00;95373.44;5029602;28;20463;-82
2022/11/04 09:45:17;;;;;;;5.17;3.70;;;;;;;7.38;100.00;95363.25;5026519;28;20525;-82
2022/11/04 09:47:51;;;;;;;2.83;2.60;;;;;;;7.31;100.00;95357.75;5053615;28;20995;-81
2022/11/04 09:50:24;;;;;;;4.73;3.20;;;;;;;7.48;100.00;95359.38;5042285;28;20488;-81
2022/11/04 09:52:59;;;;;;;3.00;2.70;;;;;;;6.97;100.00;95301.13;5056621;28;20534;-82
2022/11/04 09:55:38;;;;;;;8.40;2.90;;;;;;;7.22;100.00;95331.59;5045031;28;20484;-82
2022/11/04 09:58:10;;;;;;;4.60;2.40;;;;;;;7.70;100.00;95362.31;5038111;28;20434;-82
2022/11/04 10:00:38;;;;;;;14.70;10.40;;;;;;;7.64;100.00;95349.75;5033209;28;20441;-82
2022/11/04 10:03:17;;;;;;;17.70;15.87;;;;;;;7.52;100.00;95336.59;5026784;28;20456;-82
2022/11/04 10:05:55;;;;;;;4.50;4.10;;;;;;;7.74;100.00;95378.22;5029322;28;20467;-82
2022/11/04 10:08:33;;;;;;;7.47;6.80;;;;;;;7.75;100.00;95336.91;5029324;28;20433;-82
2022/11/04 10:11:25;;;;;;;3.57;3.27;;;;;;;8.16;100.00;95391.09;5038536;28;20447;-82
2022/11/04 10:14:20;;;;;;;2.50;2.30;;;;;;;8.17;100.00;95390.00;5034201;28;20545;-82
2022/11/04 10:16:55;;;;;;;6.30;3.43;;;;;;;8.20;100.00;95394.59;5049783;28;20529;-82
2022/11/04 10:19:56;;;;;;;2.90;2.70;;;;;;;7.56;100.00;95314.56;5003749;28;1112305;-82
2022/11/04 10:22:51;;;;;;;6.13;2.90;;;;;;;8.08;100.00;95382.22;5043270;28;20216;-82
2022/11/04 10:25:27;;;;;;;4.53;2.60;;;;;;;8.18;100.00;95396.78;5065838;28;20447;-81
2022/11/04 10:27:54;;;;;;;2.90;1.80;;;;;;;8.12;100.00;95383.09;5066247;28;20472;-82
2022/11/04 10:30:23;;;;;;;3.40;2.00;;;;;;;7.79;100.00;95337.78;5056508;28;20450;-82
2022/11/04 10:33:26;;;;;;;2.87;2.30;;;;;;;7.95;100.00;95378.09;5030462;28;20457;-82
2022/11/04 10:35:58;;;;;;;4.67;2.10;;;;;;;7.32;100.00;95283.03;5034992;28;20461;-82
2022/11/04 10:38:32;;;;;;;4.77;2.97;;;;;;;7.92;100.00;95369.00;5025583;28;20942;-82
2022/11/04 10:40:59;;;;;;;3.97;2.07;;;;;;;6.19;100.00;95126.13;5044641;28;20442;-82
2022/11/04 10:43:38;;;;;;;2.40;1.97;;;;;;;7.83;100.00;95365.72;5020217;28;20446;-82
2022/11/04 10:46:36;;;;;;;2.63;2.00;;;;;;;7.39;100.00;95289.28;5048403;28;20414;-82
2022/11/04 10:49:44;;;;;;;1.97;1.77;;;;;;;7.63;100.00;95314.78;5047105;28;20417;-82
2022/11/04 10:52:34;;;;;;;1.47;1.33;;;;;;;7.82;100.00;95326.56;5030653;28;20457;-82
2022/11/04 10:55:00;;;;;;;1.90;1.70;;;;;;;7.47;100.00;95292.09;5011973;28;20463;-82
2022/11/04 10:57:29;;;;;;;2.43;1.83;;;;;;;7.78;100.00;95330.97;5045164;28;21000;-83
2022/11/04 11:00:00;;;;;;;5.67;2.07;;;;;;;8.10;100.00;95361.59;5042470;28;20429;-82
2022/11/04 11:02:36;;;;;;;3.63;1.90;;;;;;;8.21;100.00;95367.94;5009270;28;20570;-78
2022/11/04 11:05:13;;;;;;;1.23;1.13;;;;;;;8.13;100.00;95368.06;5026251;28;20849;-76
2022/11/04 11:07:41;;;;;;;2.40;1.50;;;;;;;7.72;100.00;95333.81;5033610;28;20427;-76
2022/11/04 11:10:23;;;;;;;6.00;1.67;;;;;;;7.64;100.00;95312.91;5015983;28;20438;-78
2022/11/04 11:12:51;;;;;;;3.70;1.53;;;;;;;8.12;100.00;95383.09;5022579;28;20477;-78
2022/11/04 11:15:21;;;;;;;3.90;1.40;;;;;;;8.17;100.00;95385.50;5047593;28;20544;-78
2022/11/04 11:17:49;;;;;;;1.77;1.40;;;;;;;8.09;100.00;95381.13;5022528;28;20809;-78
2022/11/04 11:20:24;;;;;;;2.23;1.80;;;;;;;7.87;100.00;95352.66;5047408;28;20437;-78
2022/11/04 11:22:51;;;;;;;2.43;1.67;;;;;;;7.47;100.00;95318.41;5033656;28;20484;-77
2022/11/04 11:25:34;;;;;;;2.80;1.20;;;;;;;7.85;100.00;95375.91;5034814;28;20462;-78
2022/11/04 11:28:08;;;;;;;5.00;1.93;;;;;;;7.91;100.00;95379.84;5034377;28;20545;-79
2022/11/04 11:30:42;;;;;;;2.10;1.43;;;;;;;7.79;100.00;95372.75;5027188;28;20431;-78
2022/11/04 11:33:26;;;;;;;2.93;2.17;;;;;;;7.46;100.00;95309.00;5056280;28;20540;-79
2022/11/04 11:35:57;;;;;;;7.03;1.73;;;;;;;7.82;100.00;95356.28;5039384;28;20462;-79
2022/11/04 11:38:30;;;;;;;5.07;1.50;;;;;;;7.87;100.00;95371.06;5050163;28;20441;-79
2022/11/04 11:41:12;;;;;;;2.03;1.77;;;;;;;7.87;100.00;95369.19;5016214;28;20462;-79
2022/11/04 11:43:54;;;;;;;2.40;1.63;;;;;;;7.90;100.00;95347.50;5029288;28;20445;-79
2022/11/04 11:46:27;;;;;;;7.40;2.07;;;;;;;7.86;100.00;95356.38;5039644;28;20818;-80
2022/11/04 11:49:00;;;;;;;6.73;1.57;;;;;;;7.55;100.00;95313.03;5030301;28;20558;-79
2022/11/04 11:51:31;;;;;;;1.57;1.47;;;;;;;7.78;100.00;95347.53;5041933;28;20489;-79
2022/11/04 11:54:32;;;;;;;2.40;1.50;;;;;;;7.75;100.00;95334.28;5038122;28;20443;-80
2022/11/04 11:57:04;;;;;;;6.73;1.63;;;;;;;7.64;100.00;95336.59;5027045;28;20462;-77
2022/11/04 11:59:50;;;;;;;1.37;1.03;;;;;;;7.97;100.00;95352.19;5031728;28;20795;-77
2022/11/04 12:03:01;;;;;;;2.20;1.50;;;;;;;8.06;100.00;95366.00;5031641;28;20458;-77
2022/11/04 12:06:06;;;;;;;3.87;2.00;;;;;;;7.97;100.00;95368.75;5016230;28;20431;-79
2022/11/04 12:08:40;;;;;;;3.77;1.80;;;;;;;7.95;100.00;95357.03;5043350;28;20429;-79
2022/11/04 12:11:37;;;;;;;3.70;2.00;;;;;;;7.56;100.00;95316.44;5031259;28;20454;-80
2022/11/04 12:14:17;;;;;;;9.13;1.90;;;;;;;7.81;100.00;95352.13;5038156;28;20500;-79
2022/11/04 12:17:22;;;;;;;2.53;1.83;;;;;;;8.21;100.00;95362.66;5021663;28;20482;-78
2022/11/04 12:19:51;;;;;;;1.70;1.23;;;;;;;8.08;100.00;95355.91;5034684;28;20470;-78
2022/11/04 12:22:46;;;;;;;8.50;1.50;;;;;;;8.20;100.00;95358.50;5040152;28;20453;-79
2022/11/04 12:25:16;;;;;;;1.40;1.20;;;;;;;8.10;100.00;95356.31;5021314;28;20442;-78
2022/11/04 12:27:54;;;;;;;2.20;1.30;;;;;;;8.08;100.00;95366.44;5036470;28;20457;-78
2022/11/04 12:30:24;;;;;;;2.60;1.80;;;;;;;8.09;100.00;95367.97;5037645;28;20578;-78
2022/11/04 12:33:13;;;;;;;3.93;1.47;;;;;;;8.08;100.00;95366.44;5054660;28;20493;-79